createdAt,value
2023-04-12T00:00:22.864Z,74.24
2023-04-12T00:03:25.738Z,74.21
2023-04-12T00:06:32.661Z,74.16
2023-04-12T00:09:36.503Z,73.96
2023-04-12T00:12:41.644Z,73.67
2023-04-12T00:15:44.537Z,73.80
2023-04-12T00:18:47.433Z,74.23
2023-04-12T00:21:50.300Z,73.77
2023-04-12T00:24:53.197Z,74.15
2023-04-12T00:27:57.370Z,74.17
2023-04-12T00:31:00.113Z,74.61
2023-04-12T00:34:03.044Z,74.17
2023-04-12T00:37:05.768Z,74.71
2023-04-12T00:40:10.804Z,74.22
2023-04-12T00:43:19.073Z,73.82
2023-04-12T00:46:21.974Z,74.27
2023-04-12T00:49:24.933Z,74.25
2023-04-12T00:52:29.112Z,74.60
2023-04-12T00:55:32.234Z,74.13
2023-04-12T00:58:36.650Z,74.35
2023-04-12T01:01:41.519Z,74.88
2023-04-12T01:04:45.075Z,74.94
2023-04-12T01:07:54.512Z,74.83
2023-04-12T01:11:05.344Z,74.67
2023-04-12T01:14:16.497Z,74.73
2023-04-12T01:17:25.031Z,74.38
2023-04-12T01:20:31.332Z,75.16
2023-04-12T01:24:02.870Z,75.46
2023-04-12T01:27:13.635Z,74.38
2023-04-12T01:30:20.592Z,74.56
2023-04-12T01:33:31.278Z,74.63
2023-04-12T01:36:35.607Z,74.54
2023-04-12T01:39:38.691Z,74.09
2023-04-12T01:42:41.383Z,74.65
2023-04-12T01:45:46.274Z,74.75
2023-04-12T01:48:51.266Z,75.20
2023-04-12T01:51:59.444Z,75.46
2023-04-12T01:55:06.074Z,74.52
2023-04-12T01:58:11.630Z,75.41
2023-04-12T02:01:18.423Z,74.81
2023-04-12T02:04:22.479Z,74.69
2023-04-12T02:07:25.354Z,74.82
2023-04-12T02:10:31.987Z,74.92
2023-04-12T02:13:34.674Z,75.07
2023-04-12T02:16:39.579Z,74.88
2023-04-12T02:19:42.288Z,75.60
2023-04-12T02:22:45.138Z,75.05
2023-04-12T02:25:47.866Z,74.96
2023-04-12T02:28:50.707Z,74.18
2023-04-12T02:31:54.909Z,73.82
2023-04-12T02:34:59.216Z,74.75
2023-04-12T02:38:02.026Z,75.25
2023-04-12T02:41:04.871Z,74.62
2023-04-12T02:44:07.726Z,73.92
2023-04-12T02:47:11.886Z,75.11
2023-04-12T02:50:14.724Z,74.94
2023-04-12T02:53:17.875Z,75.05
2023-04-12T02:56:21.826Z,74.71
2023-04-12T02:59:25.252Z,74.49
2023-04-12T03:02:29.703Z,75.49
2023-04-12T03:05:32.752Z,75.67
2023-04-12T03:08:36.077Z,75.45
2023-04-12T03:11:39.298Z,75.29
2023-04-12T03:14:42.012Z,75.06
2023-04-12T03:17:46.284Z,75.44
2023-04-12T03:20:49.116Z,75.55
2023-04-12T03:23:52.583Z,75.43
2023-04-12T03:26:55.922Z,74.54
2023-04-12T03:29:58.664Z,75.14
2023-04-12T03:33:03.192Z,74.80
2023-04-12T03:36:06.813Z,75.20
2023-04-12T03:39:09.507Z,75.39
2023-04-12T03:45:32.698Z,74.38
2023-04-12T03:48:37.902Z,74.45
2023-04-12T03:51:42.662Z,74.19
2023-04-12T03:54:45.559Z,74.59
2023-04-12T03:57:48.602Z,74.44
2023-04-12T04:00:51.652Z,74.37
2023-04-12T04:03:56.122Z,74.55
2023-04-12T04:06:59.330Z,75.87
2023-04-12T04:10:02.769Z,75.15
2023-04-12T04:13:05.458Z,74.20
2023-04-12T04:16:11.018Z,74.24
2023-04-12T04:19:15.687Z,74.42
2023-04-12T04:22:21.660Z,74.22
2023-04-12T04:25:29.826Z,74.83
2023-04-12T04:28:35.170Z,74.97
2023-04-12T04:31:38.051Z,74.91
2023-04-12T04:34:42.327Z,75.06
2023-04-12T04:37:45.489Z,75.20
2023-04-12T04:40:53.250Z,74.80
2023-04-12T04:43:56.264Z,74.82
2023-04-12T04:47:00.691Z,75.43
2023-04-12T04:50:05.309Z,74.57
2023-04-12T04:53:08.024Z,74.52
2023-04-12T04:56:11.498Z,74.92
2023-04-12T04:59:14.261Z,74.01
2023-04-12T05:02:17.349Z,73.11
2023-04-12T05:05:23.251Z,72.21
2023-04-12T05:08:26.596Z,72.65
2023-04-12T05:11:29.446Z,71.82
2023-04-12T05:14:45.417Z,72.33
2023-04-12T05:17:50.608Z,72.53
2023-04-12T05:20:54.726Z,73.13
2023-04-12T05:23:57.574Z,73.21
2023-04-12T05:27:00.324Z,73.40
2023-04-12T05:30:03.149Z,73.67
2023-04-12T05:33:05.846Z,73.87
2023-04-12T05:36:10.823Z,73.80
2023-04-12T05:39:13.880Z,74.05
2023-04-12T05:42:16.619Z,73.77
2023-04-12T05:45:19.355Z,73.69
2023-04-12T05:48:23.263Z,74.27
2023-04-12T05:51:39.747Z,74.41
2023-04-12T05:54:43.541Z,73.62
2023-04-12T05:57:47.518Z,70.90
2023-04-12T06:00:50.353Z,69.92
2023-04-12T06:03:53.202Z,69.84
2023-04-12T06:06:57.842Z,68.65
2023-04-12T06:10:00.583Z,67.49
2023-04-12T06:13:03.468Z,66.53
2023-04-12T06:16:07.031Z,66.58
2023-04-12T06:19:10.933Z,64.74
2023-04-12T06:22:15.027Z,65.45
2023-04-12T06:25:17.790Z,64.86
2023-04-12T06:28:20.673Z,62.47
2023-04-12T06:31:23.566Z,60.88
2023-04-12T06:34:26.575Z,59.41
2023-04-12T06:37:30.718Z,57.69
2023-04-12T06:40:33.661Z,54.95
2023-04-12T06:43:36.963Z,53.59
2023-04-12T06:46:39.894Z,53.04
2023-04-12T06:49:42.870Z,51.64
2023-04-12T06:52:48.346Z,48.30
2023-04-12T06:55:51.146Z,49.75
2023-04-12T06:58:53.874Z,47.92
2023-04-12T07:01:56.748Z,45.51
2023-04-12T07:04:59.446Z,46.12
2023-04-12T07:08:03.610Z,44.42
2023-04-12T07:11:20.049Z,43.55
2023-04-12T07:14:24.098Z,43.17
2023-04-12T07:17:27.995Z,42.08
2023-04-12T07:20:30.881Z,42.60
2023-04-12T07:23:35.107Z,42.43
2023-04-12T07:26:37.869Z,41.76
2023-04-12T07:29:40.702Z,39.24
2023-04-12T07:32:43.503Z,40.15
2023-04-12T07:35:46.281Z,40.11
2023-04-12T07:38:55.146Z,40.35
2023-04-12T07:41:58.712Z,38.24
2023-04-12T07:45:01.581Z,36.54
2023-04-12T07:48:04.788Z,37.36
2023-04-12T07:51:07.771Z,37.27
2023-04-12T07:54:31.672Z,36.58
2023-04-12T07:57:34.534Z,36.66
2023-04-12T08:00:37.447Z,36.61
2023-04-12T08:03:40.276Z,36.48
2023-04-12T08:06:43.446Z,34.72
2023-04-12T08:09:48.319Z,34.34
2023-04-12T08:12:51.189Z,34.48
2023-04-12T08:15:54.120Z,33.47
2023-04-12T08:18:57.615Z,33.34
2023-04-12T08:22:00.479Z,33.93
2023-04-12T08:25:04.786Z,33.53
2023-04-12T08:28:08.514Z,34.09
2023-04-12T08:31:11.636Z,32.95
2023-04-12T08:34:14.555Z,33.78
2023-04-12T08:37:18.030Z,32.50
2023-04-12T08:40:22.779Z,32.98
2023-04-12T08:43:29.792Z,32.53
2023-04-12T08:46:32.707Z,30.46
2023-04-12T08:49:36.205Z,31.88
2023-04-12T08:52:39.581Z,30.68
2023-04-12T08:55:46.240Z,31.19
2023-04-12T08:58:49.860Z,31.34
2023-04-12T09:01:53.819Z,31.99
2023-04-12T09:04:56.986Z,32.32
2023-04-12T09:08:00.070Z,31.41
2023-04-12T09:11:23.223Z,30.71
2023-04-12T09:14:27.386Z,31.00
2023-04-12T09:17:30.405Z,30.59
2023-04-12T09:20:33.484Z,30.72
2023-04-12T09:23:37.276Z,30.41
2023-04-12T09:26:41.380Z,29.92
2023-04-12T09:29:45.567Z,29.84
2023-04-12T09:32:49.522Z,30.08
2023-04-12T09:36:01.498Z,28.11
2023-04-12T09:39:05.191Z,28.03
2023-04-12T09:42:25.493Z,27.43
2023-04-12T09:45:35.766Z,27.72
2023-04-12T09:48:39.146Z,26.40
2023-04-12T09:51:42.097Z,26.79
2023-04-12T09:54:46.443Z,27.70
2023-04-12T09:57:52.516Z,27.30
2023-04-12T10:00:58.108Z,26.45
2023-04-12T10:04:01.859Z,27.06
2023-04-12T10:07:05.900Z,27.19
2023-04-12T10:10:12.218Z,26.15
2023-04-12T10:13:18.532Z,25.70
2023-04-12T10:16:22.426Z,25.85
2023-04-12T10:19:27.016Z,25.39
2023-04-12T10:22:30.282Z,24.81
2023-04-12T10:25:34.118Z,25.42
2023-04-12T10:28:38.390Z,24.67
2023-04-12T10:31:42.185Z,24.05
2023-04-12T10:34:44.996Z,24.84
2023-04-12T10:38:01.357Z,24.73
2023-04-12T10:41:18.465Z,24.40
2023-04-12T10:44:28.560Z,23.20
2023-04-12T10:48:03.898Z,24.17
2023-04-12T10:51:22.897Z,23.78
2023-04-12T10:54:35.481Z,24.04
2023-04-12T10:57:47.206Z,23.95
2023-04-12T11:01:18.244Z,24.15
2023-04-12T11:04:22.698Z,23.26
2023-04-12T11:07:40.449Z,23.23
2023-04-12T11:10:47.149Z,24.30
2023-04-12T11:13:49.987Z,24.22
2023-04-12T11:17:25.937Z,23.66
2023-04-12T11:20:29.068Z,23.93
2023-04-12T11:23:32.338Z,24.11
2023-04-12T11:26:37.708Z,23.63
2023-04-12T11:29:40.908Z,24.15
2023-04-12T11:32:47.739Z,24.49
2023-04-12T11:35:50.613Z,24.47
2023-04-12T11:38:56.751Z,23.85
2023-04-12T11:42:02.400Z,24.97
2023-04-12T11:45:15.412Z,24.23
2023-04-12T11:48:21.925Z,25.99
2023-04-12T11:51:29.894Z,26.31
2023-04-12T11:54:35.147Z,26.87
2023-04-12T11:57:40.080Z,28.03
2023-04-12T12:00:44.992Z,28.34
2023-04-12T12:03:50.505Z,28.03
2023-04-12T12:06:54.222Z,27.15
2023-04-12T12:09:57.462Z,27.24
2023-04-12T12:13:01.123Z,27.03
2023-04-12T12:16:08.505Z,27.54
2023-04-12T12:19:12.608Z,27.53
2023-04-12T12:22:17.530Z,28.16
2023-04-12T12:25:20.821Z,27.59
2023-04-12T12:28:24.938Z,27.94
2023-04-12T12:31:29.120Z,28.61
2023-04-12T12:34:35.109Z,28.11
2023-04-12T12:37:37.873Z,28.80
2023-04-12T12:40:40.797Z,28.53
2023-04-12T12:43:46.547Z,28.09
2023-04-12T12:46:55.531Z,28.04
2023-04-12T12:50:01.207Z,28.21
2023-04-12T12:53:06.108Z,28.50
2023-04-12T12:56:10.208Z,28.72
2023-04-12T12:59:12.965Z,28.14
2023-04-12T13:02:18.210Z,28.96
2023-04-12T13:05:23.334Z,28.90
2023-04-12T13:08:26.988Z,28.84
2023-04-12T13:11:29.706Z,28.76
2023-04-12T13:14:32.637Z,28.04
2023-04-12T13:17:35.690Z,27.85
2023-04-12T13:20:40.014Z,28.41
2023-04-12T13:23:42.771Z,28.07
2023-04-12T13:26:46.054Z,28.99
2023-04-12T13:29:48.785Z,28.56
2023-04-12T13:32:51.521Z,27.99
2023-04-12T13:35:55.651Z,29.09
2023-04-12T13:38:58.469Z,29.28
2023-04-12T13:42:02.177Z,29.30
2023-04-12T13:45:05.479Z,29.48
2023-04-12T13:48:08.294Z,29.27
2023-04-12T13:51:12.636Z,29.58
2023-04-12T13:54:17.362Z,30.01
2023-04-12T13:57:20.105Z,30.00
2023-04-12T14:00:22.897Z,30.80
2023-04-12T14:03:25.813Z,30.51
2023-04-12T14:06:30.129Z,31.01
2023-04-12T14:09:33.822Z,30.99
2023-04-12T14:12:36.729Z,30.82
2023-04-12T14:15:39.587Z,31.38
2023-04-12T14:18:42.286Z,31.45
2023-04-12T14:21:47.808Z,31.35
2023-04-12T14:24:50.637Z,30.92
2023-04-12T14:27:53.587Z,30.86
2023-04-12T14:30:56.354Z,30.91
2023-04-12T14:33:59.518Z,31.53
2023-04-12T14:37:03.777Z,31.70
2023-04-12T14:40:08.484Z,32.02
2023-04-12T14:43:11.534Z,32.45
2023-04-12T14:46:14.327Z,33.65
2023-04-12T14:49:17.268Z,35.71
2023-04-12T14:52:21.328Z,35.79
2023-04-12T14:55:24.143Z,36.03
2023-04-12T14:58:29.301Z,37.40
2023-04-12T15:01:32.177Z,37.78
2023-04-12T15:04:35.078Z,37.93
2023-04-12T15:07:39.574Z,38.92
2023-04-12T15:10:42.897Z,39.67
2023-04-12T15:13:45.806Z,40.54
2023-04-12T15:16:50.445Z,40.49
2023-04-12T15:19:53.448Z,42.09
2023-04-12T15:22:57.623Z,41.40
2023-04-12T15:26:01.904Z,43.44
2023-04-12T15:29:04.785Z,46.02
2023-04-12T15:32:08.959Z,47.42
2023-04-12T15:38:22.997Z,48.54
2023-04-12T15:41:26.564Z,48.84
2023-04-12T15:44:31.979Z,47.96
2023-04-12T15:47:34.849Z,49.24
2023-04-12T15:50:37.711Z,49.90
2023-04-12T15:53:43.400Z,49.96
2023-04-12T15:56:46.246Z,51.13
2023-04-12T15:59:50.200Z,51.44
2023-04-12T16:02:54.725Z,52.33
2023-04-12T16:05:57.815Z,53.09
2023-04-12T16:09:02.448Z,53.82
2023-04-12T16:12:05.885Z,55.12
2023-04-12T16:15:09.503Z,54.37
2023-04-12T16:18:12.655Z,53.92
2023-04-12T16:21:20.209Z,54.78
2023-04-12T16:24:24.597Z,54.78
2023-04-12T16:27:29.417Z,56.25
2023-04-12T16:30:32.787Z,55.93
2023-04-12T16:33:35.850Z,55.90
2023-04-12T16:36:39.284Z,55.91
2023-04-12T16:39:44.394Z,55.39
2023-04-12T16:42:47.119Z,55.53
2023-04-12T16:45:49.878Z,56.24
2023-04-12T16:48:52.602Z,56.61
2023-04-12T16:51:55.558Z,55.27
2023-04-12T16:55:00.553Z,56.04
2023-04-12T16:58:03.559Z,57.07
2023-04-12T17:01:07.903Z,57.70
2023-04-12T17:04:10.680Z,58.11
2023-04-12T17:07:13.646Z,59.17
2023-04-12T17:10:19.511Z,58.76
2023-04-12T17:13:22.396Z,58.27
2023-04-12T17:16:25.546Z,58.30
2023-04-12T17:19:28.356Z,60.10
2023-04-12T17:22:31.616Z,58.93
2023-04-12T17:25:35.850Z,59.62
2023-04-12T17:28:39.654Z,60.22
2023-04-12T17:31:42.870Z,60.16
2023-04-12T17:34:45.546Z,59.46
2023-04-12T17:37:48.733Z,60.20
2023-04-12T17:40:52.946Z,60.05
2023-04-12T17:43:55.863Z,59.92
2023-04-12T17:46:58.964Z,60.59
2023-04-12T17:50:01.693Z,60.87
2023-04-12T17:53:04.473Z,60.68
2023-04-12T17:56:09.822Z,61.67
2023-04-12T17:59:12.549Z,60.21
2023-04-12T18:02:16.959Z,61.21
2023-04-12T18:05:19.894Z,60.97
2023-04-12T18:08:24.034Z,60.71
2023-04-12T18:11:28.508Z,60.52
2023-04-12T18:14:31.358Z,61.14
2023-04-12T18:17:34.251Z,61.12
2023-04-12T18:20:37.058Z,61.35
2023-04-12T18:23:39.936Z,61.05
2023-04-12T18:26:44.603Z,60.58
2023-04-12T18:29:47.305Z,61.56
2023-04-12T18:32:50.282Z,60.78
2023-04-12T18:35:54.319Z,60.38
2023-04-12T18:38:57.204Z,60.79
2023-04-12T18:42:01.536Z,61.27
2023-04-12T18:45:04.873Z,61.96
2023-04-12T18:48:08.548Z,61.03
2023-04-12T18:51:11.663Z,61.03
2023-04-12T18:54:17.501Z,61.61
2023-04-12T18:57:21.967Z,60.65
2023-04-12T19:00:24.981Z,60.31
2023-04-12T19:03:28.677Z,60.45
2023-04-12T19:06:31.496Z,60.00
2023-04-12T19:09:34.388Z,61.28
2023-04-12T19:12:38.493Z,60.83
2023-04-12T19:15:41.349Z,60.79
2023-04-12T19:18:44.213Z,61.19
2023-04-12T19:21:47.311Z,61.77
2023-04-12T19:24:51.009Z,61.92
2023-04-12T19:27:55.076Z,62.72
2023-04-12T19:30:58.434Z,62.27
2023-04-12T19:34:01.133Z,63.85
2023-04-12T19:37:03.901Z,64.36
2023-04-12T19:40:08.923Z,64.86
2023-04-12T19:43:14.163Z,64.15
2023-04-12T19:46:17.761Z,64.71
2023-04-12T19:49:22.126Z,65.85
2023-04-12T19:52:27.198Z,65.79
2023-04-12T19:55:30.591Z,65.93
2023-04-12T19:58:34.896Z,65.35
2023-04-12T20:01:47.644Z,66.46
2023-04-12T20:04:50.794Z,66.83
2023-04-12T20:07:55.723Z,66.81
2023-04-12T20:10:58.657Z,67.27
2023-04-12T20:14:02.974Z,67.30
2023-04-12T20:17:06.924Z,68.43
2023-04-12T20:20:14.124Z,68.58
2023-04-12T20:23:17.095Z,69.32
2023-04-12T20:26:21.174Z,69.36
2023-04-12T20:29:25.462Z,70.09
2023-04-12T20:32:28.283Z,69.48
2023-04-12T20:35:31.550Z,69.70
2023-04-12T20:38:35.850Z,69.56
2023-04-12T20:41:39.229Z,68.86
2023-04-12T20:44:43.443Z,70.29
2023-04-12T20:47:46.216Z,69.29
2023-04-12T20:50:50.473Z,70.17
2023-04-12T20:53:53.233Z,70.76
2023-04-12T20:56:56.073Z,71.47
2023-04-12T21:00:00.542Z,71.25
2023-04-12T21:03:04.170Z,71.94
2023-04-12T21:06:09.169Z,73.07
2023-04-12T21:09:11.954Z,73.84
2023-04-12T21:12:14.753Z,73.79
2023-04-12T21:15:22.147Z,74.39
2023-04-12T21:18:25.028Z,75.03
2023-04-12T21:21:28.612Z,74.16
2023-04-12T21:24:35.357Z,74.06
2023-04-12T21:27:38.511Z,74.09
2023-04-12T21:30:45.230Z,74.27
2023-04-12T21:33:48.128Z,75.37
2023-04-12T21:36:51.018Z,75.46
2023-04-12T21:39:53.758Z,75.87
2023-04-12T21:42:57.238Z,75.07
2023-04-12T21:46:01.507Z,75.99
2023-04-12T21:49:05.075Z,77.53
2023-04-12T21:52:08.280Z,77.35
2023-04-12T21:55:11.068Z,76.22
2023-04-12T21:58:14.024Z,75.53
2023-04-12T22:01:18.314Z,75.90
2023-04-12T22:04:21.375Z,76.48
2023-04-12T22:07:24.264Z,76.42
2023-04-12T22:10:27.260Z,77.38
2023-04-12T22:13:30.876Z,78.10
2023-04-12T22:16:35.195Z,79.35
2023-04-12T22:19:56.471Z,78.04
2023-04-12T22:22:59.258Z,77.99
2023-04-12T22:26:01.969Z,79.11
2023-04-12T22:29:06.185Z,78.73
2023-04-12T22:32:10.374Z,79.09
2023-04-12T22:35:13.100Z,77.88
2023-04-12T22:38:16.335Z,79.30
2023-04-12T22:41:19.923Z,79.49
2023-04-12T22:44:23.091Z,79.96
2023-04-12T22:47:28.239Z,77.66
2023-04-12T22:50:30.992Z,79.08
2023-04-12T22:53:34.393Z,80.01
2023-04-12T22:56:42.009Z,79.44
2023-04-12T22:59:44.863Z,78.77
2023-04-12T23:02:50.420Z,77.53
2023-04-12T23:05:53.498Z,78.93
2023-04-12T23:08:57.475Z,78.60
2023-04-12T23:12:00.208Z,78.69
2023-04-12T23:15:06.126Z,79.71
2023-04-12T23:18:10.836Z,79.58
2023-04-12T23:21:13.672Z,80.56
2023-04-12T23:24:16.693Z,79.69
2023-04-12T23:27:20.245Z,80.21
2023-04-12T23:30:26.431Z,80.47
2023-04-12T23:33:30.641Z,80.20
2023-04-12T23:36:34.926Z,79.65
2023-04-12T23:39:37.819Z,79.09
2023-04-12T23:42:40.524Z,79.87
2023-04-12T23:45:43.455Z,80.29
2023-04-12T23:48:47.686Z,80.16
2023-04-12T23:51:50.577Z,80.44
2023-04-12T23:54:53.421Z,81.36
2023-04-12T23:57:56.100Z,81.12
